createdAt,value
2018-04-15T00:01:55.601Z,97774.84
2018-04-15T00:04:23.839Z,97765.38
2018-04-15T00:06:52.081Z,97764.71
2018-04-15T00:09:20.317Z,97762.48
2018-04-15T00:11:48.555Z,97759.73
2018-04-15T00:14:16.798Z,97765.66
2018-04-15T00:16:45.063Z,97767.81
2018-04-15T00:19:13.344Z,97767.48
2018-04-15T00:21:41.571Z,97761.84
2018-04-15T00:24:09.831Z,97757.77
2018-04-15T00:26:38.061Z,97752.98
2018-04-15T00:29:07.071Z,97754.72
2018-04-15T00:31:36.810Z,97748.59
2018-04-15T00:34:05.866Z,97760.22
2018-04-15T00:36:34.103Z,97747.46
2018-04-15T00:39:03.122Z,97757.23
2018-04-15T00:41:31.388Z,97762.48
2018-04-15T00:44:00.400Z,97758.13
2018-04-15T00:46:29.390Z,97762.11
2018-04-15T00:48:58.409Z,97760.75
2018-04-15T00:51:27.414Z,97753.92
2018-04-15T00:54:13.463Z,97757.83
2018-04-15T00:56:41.731Z,97755.11
2018-04-15T00:59:09.995Z,97754.30
2018-04-15T01:01:39.011Z,97747.22
2018-04-15T01:04:08.014Z,97745.77
2018-04-15T01:06:37.006Z,97749.95
2018-04-15T01:09:06.172Z,97740.84
2018-04-15T01:11:34.425Z,97748.54
2018-04-15T01:14:03.443Z,97742.83
2018-04-15T01:16:31.696Z,97745.55
2018-04-15T01:18:59.946Z,97739.42
2018-04-15T01:21:28.167Z,97737.66
2018-04-15T01:23:56.438Z,97733.16
2018-04-15T01:26:24.697Z,97728.89
2018-04-15T01:28:52.971Z,97730.88
2018-04-15T01:31:21.272Z,97728.41
2018-04-15T01:33:49.500Z,97725.87
2018-04-15T01:36:18.643Z,97732.80
2018-04-15T01:38:47.648Z,97734.52
2018-04-15T01:41:16.657Z,97731.13
2018-04-15T01:43:45.650Z,97724.91
2018-04-15T01:46:13.899Z,97737.25
2018-04-15T01:48:42.156Z,97733.33
2018-04-15T01:51:10.437Z,97752.47
2018-04-15T01:53:38.668Z,97745.66
2018-04-15T01:56:07.077Z,97751.37
2018-04-15T01:58:35.386Z,97749.00
2018-04-15T02:01:04.986Z,97743.95
2018-04-15T02:03:33.247Z,97749.59
2018-04-15T02:06:01.492Z,97745.56
2018-04-15T02:08:30.491Z,97748.59
2018-04-15T02:10:59.517Z,97758.14
2018-04-15T02:13:28.515Z,97761.75
2018-04-15T02:15:57.534Z,97751.23
2018-04-15T02:18:25.774Z,97755.42
2018-04-15T02:20:54.006Z,97759.17
2018-04-15T02:23:22.265Z,97759.97
2018-04-15T02:25:50.521Z,97754.86
2018-04-15T02:28:18.750Z,97759.28
2018-04-15T02:30:46.998Z,97752.36
2018-04-15T02:33:15.264Z,97756.40
2018-04-15T02:35:43.499Z,97735.23
2018-04-15T02:38:11.738Z,97735.06
2018-04-15T02:40:40.012Z,97739.34
2018-04-15T02:43:08.254Z,97729.58
2018-04-15T02:45:37.266Z,97724.56
2018-04-15T02:48:05.499Z,97722.14
2018-04-15T02:50:33.774Z,97723.72
2018-04-15T02:53:02.791Z,97712.48
2018-04-15T02:55:31.808Z,97695.81
2018-04-15T02:58:00.062Z,97692.52
2018-04-15T03:00:28.315Z,97695.06
2018-04-15T03:02:56.633Z,97695.45
2018-04-15T03:05:24.880Z,97694.90
2018-04-15T03:07:53.110Z,97698.36
2018-04-15T03:10:21.351Z,97688.77
2018-04-15T03:12:49.606Z,97689.88
2018-04-15T03:15:17.833Z,97694.14
2018-04-15T03:17:46.089Z,97692.80
2018-04-15T03:20:15.089Z,97686.30
2018-04-15T03:22:44.093Z,97684.57
2018-04-15T03:25:13.078Z,97681.16
2018-04-15T03:27:42.120Z,97689.28
2018-04-15T03:30:11.137Z,97683.25
2018-04-15T03:32:39.387Z,97683.61
2018-04-15T03:35:07.624Z,97691.42
2018-04-15T03:37:35.873Z,97689.23
2018-04-15T03:40:04.877Z,97688.59
2018-04-15T03:42:33.114Z,97692.42
2018-04-15T03:45:01.339Z,97692.39
2018-04-15T03:47:29.604Z,97685.37
2018-04-15T03:49:57.830Z,97684.26
2018-04-15T03:52:26.880Z,97692.50
2018-04-15T03:54:55.153Z,97690.16
2018-04-15T03:57:23.389Z,97686.22
2018-04-15T03:59:51.625Z,97689.21
2018-04-15T04:02:19.879Z,97683.23
2018-04-15T04:04:48.126Z,97682.48
2018-04-15T04:07:16.387Z,97687.24
2018-04-15T04:09:45.400Z,97680.97
2018-04-15T04:12:13.653Z,97676.66
2018-04-15T04:14:41.880Z,97675.70
2018-04-15T04:17:10.162Z,97665.64
2018-04-15T04:19:56.690Z,97673.39
2018-04-15T04:22:42.792Z,97673.55
2018-04-15T04:28:18.184Z,97663.56
2018-04-15T04:30:46.408Z,97659.40
2018-04-15T04:33:14.647Z,97651.52
2018-04-15T04:35:43.660Z,97647.79
2018-04-15T04:38:12.683Z,97651.70
2018-04-15T04:40:40.932Z,97647.22
2018-04-15T04:43:09.184Z,97647.38
2018-04-15T04:45:37.415Z,97645.76
2018-04-15T04:48:06.429Z,97655.73
2018-04-15T04:50:34.657Z,97653.89
2018-04-15T04:53:02.908Z,97656.64
2018-04-15T04:55:31.889Z,97663.27
2018-04-15T04:58:00.907Z,97661.37
2018-04-15T05:00:29.933Z,97651.48
2018-04-15T05:02:58.181Z,97661.27
2018-04-15T05:05:26.503Z,97651.38
2018-04-15T05:07:55.502Z,97661.05
2018-04-15T05:10:24.516Z,97657.21
2018-04-15T05:12:52.768Z,97663.01
2018-04-15T05:15:20.992Z,97660.19
2018-04-15T05:17:49.234Z,97657.73
2018-04-15T05:20:17.486Z,97658.66
2018-04-15T05:22:45.718Z,97661.48
2018-04-15T05:25:14.025Z,97664.36
2018-04-15T05:27:42.255Z,97659.73
2018-04-15T05:30:10.508Z,97664.22
2018-04-15T05:32:38.734Z,97667.16
2018-04-15T05:35:06.993Z,97672.70
2018-04-15T05:37:36.049Z,97677.91
2018-04-15T05:40:06.037Z,97677.27
2018-04-15T05:42:35.855Z,97670.45
2018-04-15T05:45:04.848Z,97678.13
2018-04-15T05:47:34.477Z,97666.19
2018-04-15T05:50:02.711Z,97664.58
2018-04-15T05:52:30.969Z,97662.36
2018-04-15T05:54:59.237Z,97663.76
2018-04-15T05:57:28.253Z,97672.61
2018-04-15T05:59:57.876Z,97664.36
2018-04-15T06:02:26.880Z,97663.77
2018-04-15T06:04:55.897Z,97660.63
2018-04-15T06:07:24.140Z,97661.64
2018-04-15T06:09:52.398Z,97655.69
2018-04-15T06:12:20.643Z,97656.69
2018-04-15T06:14:49.774Z,97654.09
2018-04-15T06:17:18.011Z,97653.31
2018-04-15T06:19:46.339Z,97653.57
2018-04-15T06:22:15.367Z,97650.30
2018-04-15T06:24:43.638Z,97644.69
2018-04-15T06:27:12.687Z,97639.78
2018-04-15T06:29:40.966Z,97643.34
2018-04-15T06:32:09.216Z,97653.50
2018-04-15T06:34:38.269Z,97652.20
2018-04-15T06:37:06.534Z,97649.33
2018-04-15T06:39:34.827Z,97653.33
2018-04-15T06:42:03.071Z,97655.08
2018-04-15T06:44:31.337Z,97655.63
2018-04-15T06:46:59.572Z,97650.53
2018-04-15T06:49:27.826Z,97657.62
2018-04-15T06:51:56.080Z,97651.17
2018-04-15T06:54:24.352Z,97646.56
2018-04-15T06:56:53.384Z,97649.88
2018-04-15T06:59:22.383Z,97644.09
2018-04-15T07:01:50.661Z,97638.39
2018-04-15T07:04:18.891Z,97646.17
2018-04-15T07:06:47.149Z,97648.48
2018-04-15T07:09:15.382Z,97644.69
2018-04-15T07:11:43.686Z,97640.28
2018-04-15T07:14:11.901Z,97641.03
2018-04-15T07:16:40.170Z,97646.80
2018-04-15T07:19:09.336Z,97651.12
2018-04-15T07:21:37.628Z,97657.22
2018-04-15T07:24:05.868Z,97643.23
2018-04-15T07:26:34.110Z,97641.54
2018-04-15T07:29:02.364Z,97644.33
2018-04-15T07:31:30.647Z,97639.09
2018-04-15T07:33:58.870Z,97642.99
2018-04-15T07:36:27.201Z,97638.84
2018-04-15T07:38:55.501Z,97635.78
2018-04-15T07:41:23.760Z,97633.73
2018-04-15T07:43:51.995Z,97637.77
2018-04-15T07:46:20.251Z,97625.26
2018-04-15T07:48:49.258Z,97617.06
2018-04-15T07:51:18.284Z,97621.13
2018-04-15T07:53:46.526Z,97621.03
2018-04-15T07:56:14.822Z,97610.41
2018-04-15T07:58:43.031Z,97613.95
2018-04-15T08:01:12.653Z,97600.20
2018-04-15T08:03:41.723Z,97605.06
2018-04-15T08:06:09.966Z,97600.77
2018-04-15T08:08:38.224Z,97597.68
2018-04-15T08:11:08.500Z,97594.63
2018-04-15T08:13:36.775Z,97595.22
2018-04-15T08:16:05.020Z,97595.08
2018-04-15T08:18:33.273Z,97595.58
2018-04-15T08:21:01.534Z,97593.02
2018-04-15T08:23:30.562Z,97594.14
2018-04-15T08:25:58.819Z,97590.88
2018-04-15T08:28:27.855Z,97590.28
2018-04-15T08:30:56.111Z,97599.28
2018-04-15T08:33:25.137Z,97599.78
2018-04-15T08:35:53.380Z,97595.87
2018-04-15T08:38:22.435Z,97598.47
2018-04-15T08:40:50.701Z,97598.95
2018-04-15T08:43:19.756Z,97610.30
2018-04-15T08:45:47.999Z,97594.52
2018-04-15T08:48:17.015Z,97593.18
2018-04-15T08:50:46.043Z,97594.80
2018-04-15T08:53:14.345Z,97594.59
2018-04-15T08:55:42.586Z,97595.64
2018-04-15T08:58:11.618Z,97588.56
2018-04-15T09:00:39.885Z,97586.31
2018-04-15T09:03:08.140Z,97584.66
2018-04-15T09:05:36.436Z,97584.80
2018-04-15T09:08:05.451Z,97577.83
2018-04-15T09:10:33.697Z,97577.61
2018-04-15T09:13:01.951Z,97575.81
2018-04-15T09:15:31.708Z,97579.11
2018-04-15T09:17:59.987Z,97578.25
2018-04-15T09:20:28.293Z,97572.59
2018-04-15T09:22:56.544Z,97569.94
2018-04-15T09:25:25.547Z,97573.32
2018-04-15T09:27:54.551Z,97578.05
2018-04-15T09:30:23.566Z,97571.53
2018-04-15T09:32:51.874Z,97574.45
2018-04-15T09:35:20.180Z,97568.50
2018-04-15T09:37:48.432Z,97560.70
2018-04-15T09:40:16.693Z,97565.67
2018-04-15T09:42:44.982Z,97562.97
2018-04-15T09:45:13.286Z,97572.06
2018-04-15T09:47:42.420Z,97560.50
2018-04-15T09:50:10.747Z,97555.69
2018-04-15T09:52:38.996Z,97557.75
2018-04-15T09:55:07.246Z,97558.14
2018-04-15T09:57:35.496Z,97557.88
2018-04-15T10:00:03.799Z,97557.31
2018-04-15T10:02:32.048Z,97548.72
2018-04-15T10:05:01.116Z,97548.25
2018-04-15T10:07:29.369Z,97542.95
2018-04-15T10:09:57.638Z,97540.59
2018-04-15T10:12:26.092Z,97534.95
2018-04-15T10:14:54.347Z,97537.36
2018-04-15T10:17:22.598Z,97539.72
2018-04-15T10:19:50.861Z,97540.28
2018-04-15T10:22:19.101Z,97536.52
2018-04-15T10:24:47.365Z,97529.78
2018-04-15T10:27:15.647Z,97535.08
2018-04-15T10:29:44.659Z,97525.64
2018-04-15T10:32:13.668Z,97519.82
2018-04-15T10:34:41.919Z,97515.78
2018-04-15T10:37:10.175Z,97517.86
2018-04-15T10:39:38.439Z,97517.58
2018-04-15T10:42:06.710Z,97511.50
2018-04-15T10:44:35.735Z,97511.63
2018-04-15T10:47:03.983Z,97510.58
2018-04-15T10:49:32.247Z,97518.88
2018-04-15T10:52:00.552Z,97518.58
2018-04-15T10:54:28.822Z,97522.41
2018-04-15T10:56:57.073Z,97517.13
2018-04-15T10:59:26.090Z,97511.51
2018-04-15T11:01:54.339Z,97506.53
2018-04-15T11:04:22.614Z,97501.16
2018-04-15T11:06:51.632Z,97495.95
2018-04-15T11:09:19.921Z,97494.44
2018-04-15T11:11:48.184Z,97498.81
2018-04-15T11:14:16.434Z,97493.01
2018-04-15T11:16:45.489Z,97489.63
2018-04-15T11:19:13.757Z,97496.40
2018-04-15T11:21:42.008Z,97489.66
2018-04-15T11:24:11.023Z,97482.98
2018-04-15T11:26:39.299Z,97483.17
2018-04-15T11:29:07.536Z,97487.69
2018-04-15T11:31:35.809Z,97478.73
2018-04-15T11:34:04.055Z,97478.29
2018-04-15T11:36:32.303Z,97468.20
2018-04-15T11:39:00.576Z,97460.06
2018-04-15T11:41:28.847Z,97459.30
2018-04-15T11:43:57.123Z,97461.20
2018-04-15T11:46:26.887Z,97458.11
2018-04-15T11:48:55.131Z,97452.69
2018-04-15T11:51:24.164Z,97449.19
2018-04-15T11:53:52.394Z,97449.11
2018-04-15T11:56:20.682Z,97445.19
2018-04-15T11:58:49.711Z,97437.27
2018-04-15T12:01:17.977Z,97435.95
2018-04-15T12:03:46.230Z,97424.00
2018-04-15T12:06:15.539Z,97421.73
2018-04-15T12:08:43.786Z,97428.12
2018-04-15T12:11:12.060Z,97423.14
2018-04-15T12:13:40.323Z,97414.73
2018-04-15T12:16:08.563Z,97416.39
2018-04-15T12:18:36.839Z,97413.58
2018-04-15T12:21:05.085Z,97410.14
2018-04-15T12:23:33.343Z,97408.31
2018-04-15T12:26:02.371Z,97410.95
2018-04-15T12:28:30.633Z,97404.21
2018-04-15T12:30:59.629Z,97407.52
2018-04-15T12:33:28.652Z,97400.28
2018-04-15T12:35:58.437Z,97399.42
2018-04-15T12:38:27.522Z,97403.63
2018-04-15T12:40:55.816Z,97396.55
2018-04-15T12:43:24.799Z,97411.83
2018-04-15T12:45:53.032Z,97388.61
2018-04-15T12:48:21.309Z,97381.84
2018-04-15T12:50:49.566Z,97375.00
2018-04-15T12:53:17.842Z,97367.78
2018-04-15T12:55:46.083Z,97351.16
2018-04-15T12:58:14.352Z,97348.03
2018-04-15T13:00:42.595Z,97346.52
2018-04-15T13:03:11.636Z,97345.72
2018-04-15T13:05:39.878Z,97340.14
2018-04-15T13:08:08.150Z,97338.45
2018-04-15T13:10:36.395Z,97336.17
2018-04-15T13:13:04.661Z,97327.17
2018-04-15T13:15:33.679Z,97317.77
2018-04-15T13:18:02.713Z,97328.22
2018-04-15T13:20:30.986Z,97317.19
2018-04-15T13:22:59.230Z,97305.68
2018-04-15T13:25:27.486Z,97316.95
2018-04-15T13:27:56.526Z,97321.53
2018-04-15T13:30:24.775Z,97310.00
2018-04-15T13:32:53.038Z,97318.03
2018-04-15T13:35:21.279Z,97306.52
2018-04-15T13:37:49.582Z,97304.45
2018-04-15T13:40:17.969Z,97306.98
2018-04-15T13:42:46.153Z,97305.84
2018-04-15T13:45:15.190Z,97307.00
2018-04-15T13:47:44.203Z,97313.05
2018-04-15T13:50:12.519Z,97318.22
2018-04-15T13:52:40.775Z,97306.92
2018-04-15T13:55:09.817Z,97312.87
2018-04-15T13:57:38.094Z,97312.09
2018-04-15T14:00:07.184Z,97307.91
2018-04-15T14:02:36.224Z,97302.23
2018-04-15T14:05:04.488Z,97298.03
2018-04-15T14:07:32.749Z,97292.20
2018-04-15T14:10:01.089Z,97297.63
2018-04-15T14:12:29.416Z,97296.27
2018-04-15T14:14:57.774Z,97290.00
2018-04-15T14:17:26.055Z,97288.91
2018-04-15T14:19:54.422Z,97276.50
2018-04-15T14:22:23.456Z,97277.56
2018-04-15T14:24:51.793Z,97276.64
2018-04-15T14:27:20.083Z,97266.03
2018-04-15T14:29:48.416Z,97260.70
2018-04-15T14:32:16.639Z,97265.58
2018-04-15T14:34:44.962Z,97263.34
2018-04-15T14:37:14.002Z,97260.48
2018-04-15T14:39:42.309Z,97260.84
2018-04-15T14:42:10.580Z,97261.47
2018-04-15T14:44:38.913Z,97252.20
2018-04-15T14:47:07.206Z,97253.81
2018-04-15T14:49:35.468Z,97251.72
2018-04-15T14:52:03.785Z,97256.95
2018-04-15T14:54:32.096Z,97249.03
2018-04-15T14:57:01.285Z,97242.64
2018-04-15T14:59:29.584Z,97236.66
2018-04-15T15:01:58.633Z,97241.79
2018-04-15T15:04:26.915Z,97237.25
2018-04-15T15:06:55.176Z,97243.56
2018-04-15T15:09:23.458Z,97240.08
2018-04-15T15:11:51.748Z,97228.03
2018-04-15T15:14:20.126Z,97236.09
2018-04-15T15:16:48.419Z,97229.36
2018-04-15T15:19:16.747Z,97227.02
2018-04-15T15:21:44.941Z,97226.95
2018-04-15T15:24:13.210Z,97222.20
2018-04-15T15:26:42.263Z,97216.02
2018-04-15T15:29:10.529Z,97215.66
2018-04-15T15:31:38.816Z,97220.31
2018-04-15T15:34:07.067Z,97218.45
2018-04-15T15:36:35.328Z,97216.66
2018-04-15T15:39:03.688Z,97216.17
2018-04-15T15:41:32.035Z,97207.22
2018-04-15T15:44:00.328Z,97205.79
2018-04-15T15:46:28.616Z,97215.41
2018-04-15T15:48:56.939Z,97219.48
2018-04-15T15:51:25.968Z,97219.84
2018-04-15T15:53:54.268Z,97219.73
2018-04-15T15:56:22.558Z,97213.67
2018-04-15T15:58:50.826Z,97210.20
2018-04-15T16:01:19.147Z,97210.34
2018-04-15T16:03:47.419Z,97210.50
2018-04-15T16:06:15.791Z,97218.48
2018-04-15T16:08:44.108Z,97212.63
2018-04-15T16:11:12.377Z,97217.98
2018-04-15T16:13:40.679Z,97214.80
2018-04-15T16:16:08.957Z,97209.56
2018-04-15T16:18:37.245Z,97223.05
2018-04-15T16:21:05.528Z,97210.97
2018-04-15T16:23:33.817Z,97215.72
2018-04-15T16:26:02.073Z,97211.50
2018-04-15T16:28:31.159Z,97210.01
2018-04-15T16:30:59.449Z,97221.84
2018-04-15T16:33:27.781Z,97217.64
2018-04-15T16:35:56.012Z,97221.48
2018-04-15T16:38:24.370Z,97222.83
2018-04-15T16:40:52.686Z,97222.34
2018-04-15T16:43:20.933Z,97218.28
2018-04-15T16:45:49.975Z,97231.58
2018-04-15T16:48:18.287Z,97224.33
2018-04-15T16:50:46.580Z,97221.08
2018-04-15T16:53:14.827Z,97221.63
2018-04-15T16:55:43.149Z,97219.98
2018-04-15T16:58:11.424Z,97232.68
2018-04-15T17:00:39.726Z,97223.77
2018-04-15T17:03:08.081Z,97229.09
2018-04-15T17:05:37.125Z,97224.26
2018-04-15T17:08:05.450Z,97227.61
2018-04-15T17:10:33.858Z,97239.50
2018-04-15T17:13:02.206Z,97240.53
2018-04-15T17:15:30.481Z,97236.44
2018-04-15T17:17:58.919Z,97237.35
2018-04-15T17:20:27.984Z,97242.34
2018-04-15T17:22:56.291Z,97245.27
2018-04-15T17:25:24.607Z,97243.90
2018-04-15T17:27:52.826Z,97245.48
2018-04-15T17:30:21.064Z,97256.66
2018-04-15T17:32:49.339Z,97260.62
2018-04-15T17:35:17.630Z,97262.34
2018-04-15T17:37:45.888Z,97257.48
2018-04-15T17:40:14.201Z,97266.31
2018-04-15T17:42:42.517Z,97266.84
2018-04-15T17:45:10.764Z,97269.53
2018-04-15T17:47:39.017Z,97272.23
2018-04-15T17:50:08.076Z,97266.92
2018-04-15T17:52:36.419Z,97266.88
2018-04-15T17:55:05.498Z,97269.52
2018-04-15T17:57:33.834Z,97275.19
2018-04-15T18:00:02.218Z,97276.02
2018-04-15T18:02:30.574Z,97284.30
2018-04-15T18:04:58.876Z,97284.02
2018-04-15T18:07:27.928Z,97282.80
2018-04-15T18:09:56.214Z,97287.36
2018-04-15T18:12:24.635Z,97282.52
2018-04-15T18:14:52.921Z,97285.22
2018-04-15T18:17:21.297Z,97281.76
2018-04-15T18:19:49.574Z,97285.67
2018-04-15T18:22:17.859Z,97291.19
2018-04-15T18:24:46.168Z,97298.41
2018-04-15T18:27:14.466Z,97295.14
2018-04-15T18:29:42.771Z,97295.31
2018-04-15T18:32:11.109Z,97289.73
2018-04-15T18:34:40.142Z,97296.52
2018-04-15T18:37:08.420Z,97303.67
2018-04-15T18:39:36.719Z,97296.90
2018-04-15T18:42:04.970Z,97300.95
2018-04-15T18:44:33.990Z,97305.30
2018-04-15T18:47:02.284Z,97298.92
2018-04-15T18:49:30.606Z,97303.02
2018-04-15T18:51:58.860Z,97302.58
2018-04-15T18:54:27.242Z,97305.16
2018-04-15T18:56:55.506Z,97305.80
2018-04-15T18:59:23.775Z,97311.32
2018-04-15T19:01:52.057Z,97307.95
2018-04-15T19:04:20.525Z,97309.29
2018-04-15T19:06:48.792Z,97309.13
2018-04-15T19:09:17.914Z,97301.64
2018-04-15T19:11:46.218Z,97308.47
2018-04-15T19:14:14.515Z,97312.52
2018-04-15T19:16:42.827Z,97311.84
2018-04-15T19:19:11.874Z,97314.06
2018-04-15T19:21:40.928Z,97315.32
2018-04-15T19:24:10.384Z,97315.58
2018-04-15T19:26:39.433Z,97312.09
2018-04-15T19:29:07.703Z,97313.31
2018-04-15T19:31:35.995Z,97318.69
2018-04-15T19:34:04.270Z,97314.78
2018-04-15T19:36:33.333Z,97313.91
2018-04-15T19:39:01.636Z,97319.84
2018-04-15T19:41:29.951Z,97323.63
2018-04-15T19:43:58.298Z,97323.81
2018-04-15T19:46:26.606Z,97329.16
2018-04-15T19:48:54.851Z,97332.03
2018-04-15T19:51:23.126Z,97331.23
2018-04-15T19:53:51.450Z,97327.60
2018-04-15T19:56:19.859Z,97331.23
2018-04-15T19:58:48.105Z,97325.13
2018-04-15T20:01:16.427Z,97336.52
2018-04-15T20:03:44.663Z,97332.17
2018-04-15T20:06:13.731Z,97334.17
2018-04-15T20:08:41.978Z,97328.28
2018-04-15T20:11:10.327Z,97336.70
2018-04-15T20:13:38.597Z,97330.75
2018-04-15T20:16:06.871Z,97335.23
2018-04-15T20:18:35.178Z,97338.77
2018-04-15T20:21:03.462Z,97331.27
2018-04-15T20:23:31.758Z,97335.83
2018-04-15T20:26:00.071Z,97337.52
2018-04-15T20:28:28.356Z,97333.71
2018-04-15T20:30:56.614Z,97330.27
2018-04-15T20:33:24.876Z,97333.00
2018-04-15T20:35:53.095Z,97337.16
2018-04-15T20:38:22.365Z,97335.06
2018-04-15T20:40:51.351Z,97329.38
2018-04-15T20:43:20.453Z,97335.74
2018-04-15T20:45:49.507Z,97328.82
2018-04-15T20:48:17.774Z,97330.34
2018-04-15T20:50:46.035Z,97332.66
2018-04-15T20:53:14.359Z,97334.37
2018-04-15T20:55:42.628Z,97333.44
2018-04-15T20:58:11.676Z,97331.74
2018-04-15T21:00:39.942Z,97336.05
2018-04-15T21:03:08.980Z,97335.27
2018-04-15T21:05:37.240Z,97335.05
2018-04-15T21:08:05.518Z,97327.90
2018-04-15T21:10:34.568Z,97326.34
2018-04-15T21:13:02.844Z,97331.58
2018-04-15T21:15:31.090Z,97324.39
2018-04-15T21:18:00.176Z,97327.38
2018-04-15T21:20:28.608Z,97321.80
2018-04-15T21:22:57.646Z,97324.16
2018-04-15T21:25:25.931Z,97321.97
2018-04-15T21:27:54.207Z,97319.36
2018-04-15T21:30:22.504Z,97318.30
2018-04-15T21:32:50.760Z,97314.13
2018-04-15T21:35:19.777Z,97310.97
2018-04-15T21:37:48.810Z,97310.53
2018-04-15T21:40:17.054Z,97314.98
2018-04-15T21:42:45.322Z,97315.77
2018-04-15T21:45:14.735Z,97308.44
2018-04-15T21:47:43.088Z,97308.24
2018-04-15T21:50:11.359Z,97307.79
2018-04-15T21:52:39.679Z,97315.30
2018-04-15T21:55:07.934Z,97314.84
2018-04-15T21:57:36.956Z,97320.62
2018-04-15T22:00:05.271Z,97332.92
2018-04-15T22:02:33.512Z,97330.19
2018-04-15T22:05:02.548Z,97318.70
2018-04-15T22:07:30.799Z,97325.05
2018-04-15T22:09:59.842Z,97327.02
2018-04-15T22:12:28.075Z,97327.06
2018-04-15T22:14:56.357Z,97334.78
2018-04-15T22:17:24.602Z,97339.25
2018-04-15T22:19:52.851Z,97348.23
2018-04-15T22:22:21.200Z,97349.27
2018-04-15T22:24:49.459Z,97347.88
2018-04-15T22:27:17.707Z,97352.48
2018-04-15T22:29:45.959Z,97352.96
2018-04-15T22:32:14.214Z,97350.65
2018-04-15T22:34:43.345Z,97356.50
2018-04-15T22:37:11.585Z,97360.48
2018-04-15T22:39:39.870Z,97343.53
2018-04-15T22:42:08.118Z,97345.55
2018-04-15T22:44:36.394Z,97341.58
2018-04-15T22:47:06.164Z,97340.46
2018-04-15T22:49:34.440Z,97337.34
2018-04-15T22:52:02.688Z,97334.80
2018-04-15T22:54:31.709Z,97333.41
2018-04-15T22:57:05.352Z,97337.30
2018-04-15T22:59:33.672Z,97332.96
2018-04-15T23:02:01.929Z,97340.29
2018-04-15T23:04:30.205Z,97337.25
2018-04-15T23:06:58.454Z,97341.36
2018-04-15T23:09:27.497Z,97332.95
2018-04-15T23:11:55.722Z,97336.86
2018-04-15T23:14:24.027Z,97318.80
2018-04-15T23:16:52.258Z,97315.86
2018-04-15T23:19:20.516Z,97322.52
2018-04-15T23:21:49.523Z,97325.16
2018-04-15T23:24:18.568Z,97332.73
2018-04-15T23:26:46.803Z,97329.92
2018-04-15T23:29:15.074Z,97336.18
2018-04-15T23:31:43.380Z,97340.47
2018-04-15T23:34:11.628Z,97350.91
2018-04-15T23:36:39.886Z,97352.01
2018-04-15T23:39:08.883Z,97347.69
2018-04-15T23:41:37.913Z,97348.53
2018-04-15T23:44:06.205Z,97346.69
2018-04-15T23:46:34.457Z,97352.64
2018-04-15T23:49:03.478Z,97350.05
2018-04-15T23:51:32.517Z,97354.91
2018-04-15T23:54:00.779Z,97364.35
2018-04-15T23:56:29.290Z,97356.09
2018-04-15T23:58:57.535Z,97344.42
